This is the latest recevied weather packets stored in our database for station/object EA5AER-5. If no packets are shown the sender has not sent any weather packets the latest 10 day(s).
| Time | Temp. | Humidity | Pressure | Rain* | Wind** | Luminosity | Snow |
|---|---|---|---|---|---|---|---|
| 1777904729 | 20° C | 81% | 1008.9 hPa | 0.25 mm | - | 90 W/m² | - |
| 1777903563 | 20° C | 81% | 1009.1 hPa | 0.25 mm | - | 763 W/m² | - |
| 1777902449 | 18.89° C | 86% | 1009.3 hPa | 0.25 mm | - | 234 W/m² | - |
| 1777901284 | 18.33° C | 86% | 1009.8 hPa | 0.25 mm | - | 74 W/m² | - |
| 1777900058 | 19.44° C | 82% | 1009.8 hPa | 0 mm | - | 97 W/m² | - |
| 1777898919 | 19.44° C | 82% | 1009.8 hPa | 0 mm | - | 97 W/m² | - |
| 1777897744 | 20° C | 78% | 1009.7 hPa | 0 mm | - | 223 W/m² | - |
| 1777896509 | 19.44° C | 79% | 1010.2 hPa | 0 mm | - | 1099 W/m² | - |
| 1777895287 | 19.44° C | 79% | 1010.2 hPa | 0 mm | - | 1099 W/m² | - |
| 1777894114 | 19.44° C | 79% | 1010.2 hPa | 0 mm | - | 1099 W/m² | - |
| 1777892857 | 19.44° C | 79% | 1010.4 hPa | 0 mm | - | 316 W/m² | - |
| 1777891522 | 19.44° C | 79% | 1010.4 hPa | 0 mm | - | 316 W/m² | - |
| 1777890289 | 20.56° C | 77% | 1010.3 hPa | 0 mm | - | 1078 W/m² | - |
| 1777889044 | 21.67° C | 74% | 1009.9 hPa | 0 mm | - | 888 W/m² | - |
| 1777887879 | 21.67° C | 74% | 1009.9 hPa | 0 mm | - | 888 W/m² | - |
| 1777886668 | 18.33° C | 83% | 1010.2 hPa | 0 mm | - | 86 W/m² | - |
| 1777885421 | 18.33° C | 83% | 1010.2 hPa | 0 mm | - | 86 W/m² | - |
| 1777884268 | 18.33° C | 83% | 1010.2 hPa | 0 mm | - | 86 W/m² | - |
| 1777883144 | 18.33° C | 83% | 1010.2 hPa | 0 mm | - | 86 W/m² | - |
| 1777881956 | 18.33° C | 83% | 1010.2 hPa | 0 mm | - | 86 W/m² | - |
| 1777880713 | 18.33° C | 83% | 1010.2 hPa | 0 mm | - | 86 W/m² | - |
| 1777879414 | 18.33° C | 83% | 1010.2 hPa | 0 mm | - | 86 W/m² | - |
| 1777878233 | 18.33° C | 83% | 1010.2 hPa | 0 mm | - | 86 W/m² | - |
| 1777877073 | 18.33° C | 83% | 1010.2 hPa | 0 mm | - | 86 W/m² | - |
| 1777875913 | 18.33° C | 83% | 1010.2 hPa | 0 mm | - | 86 W/m² | - |
* Rain latest hour (hover to see other rain measurements)
** Current wind speed in m/s (hover to see current wind gust speed)